createdAt,value
2023-03-30T00:01:15.113Z,13.30
2023-03-30T00:03:46.969Z,13.30
2023-03-30T00:06:23.615Z,13.30
2023-03-30T00:08:58.280Z,13.20
2023-03-30T00:11:27.094Z,13.20
2023-03-30T00:13:54.293Z,13.20
2023-03-30T00:16:22.239Z,13.20
2023-03-30T00:18:49.298Z,13.20
2023-03-30T00:21:18.372Z,13.20
2023-03-30T00:23:47.749Z,13.20
2023-03-30T00:26:16.267Z,13.10
2023-03-30T00:28:43.073Z,13.10
2023-03-30T00:31:11.389Z,13.10
2023-03-30T00:33:45.543Z,13.10
2023-03-30T00:36:13.101Z,13.10
2023-03-30T00:38:40.661Z,13.00
2023-03-30T00:41:09.223Z,13.00
2023-03-30T00:43:55.256Z,13.10
2023-03-30T00:46:23.414Z,13.00
2023-03-30T00:48:50.769Z,13.00
2023-03-30T00:51:19.390Z,13.00
2023-03-30T00:53:54.422Z,13.00
2023-03-30T00:56:29.067Z,12.90
2023-03-30T00:58:55.980Z,12.90
2023-03-30T01:01:28.604Z,12.90
2023-03-30T01:04:02.232Z,12.90
2023-03-30T01:06:31.450Z,12.90
2023-03-30T01:08:58.885Z,12.80
2023-03-30T01:11:29.092Z,12.80
2023-03-30T01:14:04.619Z,12.90
2023-03-30T01:16:50.419Z,12.90
2023-03-30T01:19:59.953Z,12.90
2023-03-30T01:23:04.790Z,12.80
2023-03-30T01:25:50.395Z,12.70
2023-03-30T01:28:57.538Z,12.80
2023-03-30T01:32:16.084Z,12.80
2023-03-30T01:35:21.718Z,12.80
2023-03-30T01:38:19.065Z,12.80
2023-03-30T01:41:09.926Z,12.70
2023-03-30T01:43:52.640Z,12.70
2023-03-30T01:46:31.601Z,12.70
2023-03-30T01:49:11.846Z,12.70
2023-03-30T01:51:52.775Z,12.70
2023-03-30T01:54:30.431Z,12.70
2023-03-30T01:57:14.360Z,12.70
2023-03-30T01:59:52.758Z,12.70
2023-03-30T02:02:26.152Z,12.70
2023-03-30T02:04:57.778Z,12.60
2023-03-30T02:07:32.064Z,12.60
2023-03-30T02:10:06.068Z,12.60
2023-03-30T02:12:33.800Z,12.60
2023-03-30T02:15:07.628Z,12.60
2023-03-30T02:17:35.954Z,12.60
2023-03-30T02:20:04.478Z,12.60
2023-03-30T02:22:33.878Z,12.60
2023-03-30T02:25:01.174Z,12.60
2023-03-30T02:27:28.630Z,12.50
2023-03-30T02:29:56.382Z,12.60
2023-03-30T02:32:42.435Z,12.50
2023-03-30T02:35:51.645Z,12.50
2023-03-30T02:38:58.795Z,12.50
2023-03-30T02:42:19.090Z,12.50
2023-03-30T02:45:04.460Z,12.50
2023-03-30T02:48:17.391Z,12.50
2023-03-30T02:51:13.926Z,12.50
2023-03-30T02:54:01.546Z,12.50
2023-03-30T02:56:43.155Z,12.40
2023-03-30T02:59:43.583Z,12.40
2023-03-30T03:02:23.477Z,12.40
2023-03-30T03:04:53.641Z,12.40
2023-03-30T03:07:21.828Z,12.40
2023-03-30T03:09:49.186Z,12.40
2023-03-30T03:12:16.088Z,12.30
2023-03-30T03:17:10.123Z,12.30
2023-03-30T03:19:37.011Z,12.30
2023-03-30T03:22:03.813Z,12.30
2023-03-30T03:24:33.873Z,12.30
2023-03-30T03:27:02.316Z,12.30
2023-03-30T03:29:29.043Z,12.30
2023-03-30T03:31:55.897Z,12.20
2023-03-30T03:34:26.159Z,12.30
2023-03-30T03:36:54.853Z,12.20
2023-03-30T03:39:21.575Z,12.20
2023-03-30T03:41:48.388Z,12.20
2023-03-30T03:44:15.315Z,12.20
2023-03-30T03:46:42.199Z,12.20
2023-03-30T03:49:09.591Z,12.20
2023-03-30T03:51:37.000Z,12.20
2023-03-30T03:54:03.809Z,12.20
2023-03-30T03:56:31.124Z,12.30
2023-03-30T03:58:57.854Z,12.30
2023-03-30T04:01:24.635Z,12.30
2023-03-30T04:03:51.499Z,12.30
2023-03-30T04:06:18.418Z,12.30
2023-03-30T04:08:45.285Z,12.30
2023-03-30T04:11:12.913Z,12.30
2023-03-30T04:13:40.753Z,12.40
2023-03-30T04:16:08.492Z,12.40
2023-03-30T04:18:36.076Z,12.40
2023-03-30T04:21:07.509Z,12.30
2023-03-30T04:23:35.522Z,12.40
2023-03-30T04:26:07.914Z,12.40
2023-03-30T04:28:35.836Z,12.50
2023-03-30T04:31:06.339Z,12.50
2023-03-30T04:33:39.187Z,12.50
2023-03-30T04:36:06.425Z,12.50
2023-03-30T04:38:36.435Z,12.50
2023-03-30T04:41:03.532Z,12.50
2023-03-30T04:43:30.445Z,12.50
2023-03-30T04:45:57.208Z,12.50
2023-03-30T04:48:24.404Z,12.50
2023-03-30T04:50:52.091Z,12.50
2023-03-30T04:53:19.202Z,12.50
2023-03-30T04:55:51.643Z,12.50
2023-03-30T04:58:18.683Z,12.60
2023-03-30T05:00:45.828Z,12.60
2023-03-30T05:03:12.843Z,12.60
2023-03-30T05:05:39.742Z,12.60
2023-03-30T05:08:06.540Z,12.50
2023-03-30T05:10:33.498Z,12.60
2023-03-30T05:13:00.381Z,12.60
2023-03-30T05:15:27.393Z,12.60
2023-03-30T05:17:54.310Z,12.60
2023-03-30T05:20:21.201Z,12.60
2023-03-30T05:22:48.096Z,12.60
2023-03-30T05:25:14.929Z,12.60
2023-03-30T05:27:41.663Z,12.70
2023-03-30T05:30:09.481Z,12.70
2023-03-30T05:32:36.319Z,12.70
2023-03-30T05:35:03.666Z,12.70
2023-03-30T05:37:30.647Z,12.80
2023-03-30T05:39:58.344Z,12.80
2023-03-30T05:42:25.152Z,12.80
2023-03-30T05:44:51.925Z,12.80
2023-03-30T05:47:18.770Z,12.90
2023-03-30T05:49:45.546Z,12.90
2023-03-30T05:52:12.327Z,12.90
2023-03-30T05:54:39.095Z,13.00
2023-03-30T05:57:05.932Z,12.90
2023-03-30T05:59:33.140Z,13.00
2023-03-30T06:02:00.665Z,13.00
2023-03-30T06:04:27.695Z,12.90
2023-03-30T06:06:54.514Z,13.00
2023-03-30T06:09:21.697Z,13.10
2023-03-30T06:11:48.423Z,13.10
2023-03-30T06:14:15.665Z,13.10
2023-03-30T06:16:42.465Z,13.10
2023-03-30T06:19:09.392Z,13.10
2023-03-30T06:21:36.239Z,13.20
2023-03-30T06:24:03.256Z,13.20
2023-03-30T06:26:29.990Z,13.30
2023-03-30T06:28:56.759Z,13.30
2023-03-30T06:31:23.574Z,13.40
2023-03-30T06:33:51.318Z,13.40
2023-03-30T06:36:18.649Z,13.50
2023-03-30T06:38:45.582Z,13.60
2023-03-30T06:41:12.836Z,13.60
2023-03-30T06:43:40.743Z,13.70
2023-03-30T06:46:09.762Z,13.70
2023-03-30T06:48:36.826Z,13.80
2023-03-30T06:51:04.274Z,13.90
2023-03-30T06:53:31.364Z,13.90
2023-03-30T06:55:58.866Z,14.00
2023-03-30T06:58:27.486Z,14.00
2023-03-30T07:03:21.852Z,14.10
2023-03-30T07:05:50.727Z,14.20
2023-03-30T07:08:19.533Z,14.20
2023-03-30T07:10:47.970Z,14.30
2023-03-30T07:13:16.928Z,14.30
2023-03-30T07:15:44.740Z,14.30
2023-03-30T07:18:11.784Z,14.40
2023-03-30T07:20:38.658Z,14.40
2023-03-30T07:23:05.498Z,14.40
2023-03-30T07:25:32.624Z,14.40
2023-03-30T07:27:59.477Z,14.50
2023-03-30T07:30:26.578Z,14.60
2023-03-30T07:32:55.513Z,14.60
2023-03-30T07:35:24.405Z,14.70
2023-03-30T07:37:51.621Z,14.70
2023-03-30T07:40:21.254Z,14.80
2023-03-30T07:42:48.180Z,14.80
2023-03-30T07:45:16.664Z,14.90
2023-03-30T07:47:43.660Z,14.90
2023-03-30T07:50:10.876Z,15.10
2023-03-30T07:52:38.723Z,15.00
2023-03-30T07:55:05.758Z,15.20
2023-03-30T07:57:32.549Z,15.30
2023-03-30T07:59:59.439Z,15.30
2023-03-30T08:02:27.126Z,15.40
2023-03-30T08:04:54.518Z,15.50
2023-03-30T08:07:21.473Z,15.60
2023-03-30T08:09:48.271Z,15.70
2023-03-30T08:12:15.070Z,15.80
2023-03-30T08:14:42.109Z,15.80
2023-03-30T08:17:09.035Z,15.90
2023-03-30T08:19:35.768Z,15.90
2023-03-30T08:22:03.151Z,16.10
2023-03-30T08:24:30.009Z,16.10
2023-03-30T08:26:56.864Z,16.20
2023-03-30T08:29:24.018Z,16.30
2023-03-30T08:31:52.039Z,16.30
2023-03-30T08:34:19.392Z,16.20
2023-03-30T08:36:46.174Z,16.50
2023-03-30T08:39:12.911Z,16.50
2023-03-30T08:42:07.206Z,16.60
2023-03-30T08:44:38.747Z,16.70
2023-03-30T08:47:14.588Z,16.70
2023-03-30T08:49:56.111Z,16.80
2023-03-30T08:52:26.756Z,16.90
2023-03-30T08:54:53.974Z,17.00
2023-03-30T08:57:59.813Z,17.10
2023-03-30T09:00:41.448Z,17.20
2023-03-30T09:03:32.179Z,17.30
2023-03-30T09:06:12.075Z,17.50
2023-03-30T09:08:39.925Z,17.60
2023-03-30T09:11:15.449Z,17.70
2023-03-30T09:13:46.318Z,17.90
2023-03-30T09:16:43.256Z,18.10
2023-03-30T09:19:23.809Z,18.20
2023-03-30T09:21:53.605Z,18.40
2023-03-30T09:24:26.703Z,18.50
2023-03-30T09:27:14.704Z,18.70
2023-03-30T09:29:51.007Z,18.90
2023-03-30T09:32:42.538Z,19.00
2023-03-30T09:35:24.882Z,19.20
2023-03-30T09:37:51.629Z,19.40
2023-03-30T09:40:34.870Z,19.50
2023-03-30T09:43:33.384Z,19.70
2023-03-30T09:46:05.967Z,19.80
2023-03-30T09:48:47.706Z,20.00
2023-03-30T09:51:31.072Z,20.10
2023-03-30T09:54:04.361Z,20.20
2023-03-30T09:56:47.585Z,20.30
2023-03-30T09:59:35.011Z,20.40
2023-03-30T10:02:16.967Z,20.50
2023-03-30T10:04:53.103Z,20.60
2023-03-30T10:07:40.393Z,20.60
2023-03-30T10:10:37.466Z,21.60
2023-03-30T10:13:13.378Z,20.70
2023-03-30T10:15:46.054Z,20.80
2023-03-30T10:18:27.656Z,20.80
2023-03-30T10:21:05.596Z,20.80
2023-03-30T10:23:42.219Z,20.80
2023-03-30T10:26:19.490Z,20.80
2023-03-30T10:29:10.911Z,20.70
2023-03-30T10:31:42.594Z,20.80
2023-03-30T10:34:37.876Z,20.70
2023-03-30T10:37:11.614Z,20.70
2023-03-30T10:39:42.065Z,20.70
2023-03-30T10:42:17.329Z,20.70
2023-03-30T10:44:53.450Z,20.70
2023-03-30T10:48:00.460Z,20.70
2023-03-30T10:50:54.840Z,20.70
2023-03-30T10:53:52.924Z,20.80
2023-03-30T10:56:54.712Z,20.80
2023-03-30T10:59:33.323Z,20.90
2023-03-30T11:02:40.241Z,20.90
2023-03-30T11:05:18.589Z,20.90
2023-03-30T11:08:00.866Z,21.00
2023-03-30T11:10:50.104Z,21.00
2023-03-30T11:13:31.533Z,21.00
2023-03-30T11:16:18.001Z,21.10
2023-03-30T11:19:20.351Z,21.10
2023-03-30T11:22:12.124Z,21.10
2023-03-30T11:24:43.321Z,21.10
2023-03-30T11:27:32.109Z,21.10
2023-03-30T11:30:26.644Z,21.10
2023-03-30T11:33:18.584Z,21.20
2023-03-30T11:35:57.814Z,21.30
2023-03-30T11:39:00.665Z,21.30
2023-03-30T11:41:56.475Z,21.40
2023-03-30T11:44:23.251Z,21.40
2023-03-30T11:47:35.242Z,21.50
2023-03-30T11:50:26.244Z,21.60
2023-03-30T11:53:46.221Z,21.60
2023-03-30T11:56:37.221Z,21.70
2023-03-30T11:59:46.392Z,21.80
2023-03-30T12:02:50.484Z,21.80
2023-03-30T12:05:32.703Z,21.80
2023-03-30T12:08:29.672Z,21.80
2023-03-30T12:11:11.719Z,21.80
2023-03-30T12:13:48.635Z,21.70
2023-03-30T12:16:37.490Z,21.70
2023-03-30T12:19:26.909Z,21.70
2023-03-30T12:22:13.006Z,21.60
2023-03-30T12:24:58.693Z,21.50
2023-03-30T12:27:29.016Z,21.50
2023-03-30T12:30:23.183Z,21.30
2023-03-30T12:33:33.459Z,21.40
2023-03-30T12:36:26.148Z,21.50
2023-03-30T12:39:02.456Z,21.50
2023-03-30T12:41:48.471Z,21.40
2023-03-30T12:44:32.529Z,21.40
2023-03-30T12:47:24.778Z,21.50
2023-03-30T12:50:09.822Z,21.50
2023-03-30T12:53:09.350Z,21.60
2023-03-30T12:56:09.794Z,21.60
2023-03-30T12:58:55.949Z,21.70
2023-03-30T13:01:44.180Z,21.80
2023-03-30T13:04:21.141Z,21.90
2023-03-30T13:07:32.305Z,22.00
2023-03-30T13:10:24.936Z,22.10
2023-03-30T13:12:51.707Z,22.30
2023-03-30T13:15:41.557Z,22.20
2023-03-30T13:18:11.715Z,22.30
2023-03-30T13:20:47.527Z,22.40
2023-03-30T13:23:14.382Z,22.50
2023-03-30T13:25:51.700Z,22.50
2023-03-30T13:28:44.416Z,22.60
2023-03-30T13:31:48.507Z,22.60
2023-03-30T13:34:44.886Z,22.70
2023-03-30T13:37:45.264Z,22.70
2023-03-30T13:40:27.293Z,22.70
2023-03-30T13:43:23.549Z,22.70
2023-03-30T13:46:16.825Z,22.70
2023-03-30T13:49:50.176Z,22.60
2023-03-30T13:52:30.242Z,22.60
2023-03-30T13:54:58.094Z,22.50
2023-03-30T13:57:40.106Z,22.40
2023-03-30T14:00:46.589Z,22.30
2023-03-30T14:03:40.276Z,22.10
2023-03-30T14:06:13.486Z,21.90
2023-03-30T14:08:48.812Z,21.50
2023-03-30T14:11:38.757Z,21.10
2023-03-30T14:14:06.713Z,20.60
2023-03-30T14:16:38.635Z,20.00
2023-03-30T14:19:25.166Z,19.40
2023-03-30T14:22:11.923Z,18.80
2023-03-30T14:24:38.757Z,18.30
2023-03-30T14:27:15.305Z,17.80
2023-03-30T14:29:51.278Z,17.40
2023-03-30T14:32:25.124Z,17.10
2023-03-30T14:34:54.550Z,16.80
2023-03-30T14:37:26.043Z,16.60
2023-03-30T14:39:56.231Z,16.40
2023-03-30T14:42:27.617Z,16.20
2023-03-30T14:44:57.747Z,16.20
2023-03-30T14:47:27.467Z,16.10
2023-03-30T14:49:58.908Z,16.00
2023-03-30T14:52:40.735Z,15.90
2023-03-30T14:55:18.968Z,15.90
2023-03-30T14:57:46.773Z,15.80
2023-03-30T15:00:21.346Z,15.70
2023-03-30T15:02:59.883Z,15.70
2023-03-30T15:05:36.234Z,15.70
2023-03-30T15:08:04.213Z,15.70
2023-03-30T15:10:46.143Z,15.70
2023-03-30T15:13:26.063Z,15.70
2023-03-30T15:15:54.862Z,15.70
2023-03-30T15:18:27.613Z,15.70
2023-03-30T15:20:56.411Z,15.70
2023-03-30T15:23:29.885Z,15.70
2023-03-30T15:26:01.214Z,15.60
2023-03-30T15:28:37.721Z,15.70
2023-03-30T15:31:05.609Z,15.70
2023-03-30T15:33:39.872Z,15.70
2023-03-30T15:36:34.149Z,15.70
2023-03-30T15:39:01.092Z,15.80
2023-03-30T15:41:56.610Z,15.80
2023-03-30T15:44:24.178Z,15.80
2023-03-30T15:46:55.897Z,15.80
2023-03-30T15:49:39.681Z,15.80
2023-03-30T15:52:16.592Z,15.80
2023-03-30T15:54:55.286Z,15.90
2023-03-30T15:57:29.466Z,15.90
2023-03-30T16:00:05.375Z,15.90
2023-03-30T16:02:32.391Z,16.00
2023-03-30T16:05:02.726Z,15.90
2023-03-30T16:07:32.367Z,16.00
2023-03-30T16:09:59.217Z,16.00
2023-03-30T16:12:29.674Z,16.00
2023-03-30T16:14:59.209Z,15.80
2023-03-30T16:17:26.236Z,15.90
2023-03-30T16:19:53.106Z,16.00
2023-03-30T16:22:20.003Z,16.00
2023-03-30T16:24:48.230Z,16.00
2023-03-30T16:27:15.324Z,15.90
2023-03-30T16:29:42.137Z,16.00
2023-03-30T16:32:09.023Z,16.00
2023-03-30T16:34:35.869Z,16.00
2023-03-30T16:37:03.965Z,16.00
2023-03-30T16:39:30.888Z,16.00
2023-03-30T16:41:57.899Z,16.10
2023-03-30T16:44:25.454Z,16.10
2023-03-30T16:46:53.034Z,16.10
2023-03-30T16:49:24.315Z,16.20
2023-03-30T16:51:54.507Z,16.10
2023-03-30T16:57:01.447Z,16.20
2023-03-30T16:59:30.905Z,16.20
2023-03-30T17:01:58.777Z,16.20
2023-03-30T17:04:26.745Z,16.20
2023-03-30T17:06:56.164Z,16.20
2023-03-30T17:09:23.337Z,16.20
2023-03-30T17:11:50.490Z,16.20
2023-03-30T17:14:18.024Z,16.20
2023-03-30T17:16:44.800Z,16.30
2023-03-30T17:19:16.296Z,16.30
2023-03-30T17:21:43.799Z,16.30
2023-03-30T17:24:11.230Z,16.20
2023-03-30T17:26:38.978Z,16.20
2023-03-30T17:29:05.822Z,16.20
2023-03-30T17:31:32.722Z,16.20
2023-03-30T17:33:59.525Z,16.10
2023-03-30T17:36:28.661Z,16.10
2023-03-30T17:38:55.522Z,16.10
2023-03-30T17:41:23.514Z,15.90
2023-03-30T17:43:50.275Z,15.90
2023-03-30T17:46:19.108Z,15.90
2023-03-30T17:48:46.350Z,15.80
2023-03-30T17:51:13.125Z,15.80
2023-03-30T17:53:39.887Z,15.70
2023-03-30T17:56:06.857Z,15.70
2023-03-30T17:58:36.444Z,15.70
2023-03-30T18:01:07.922Z,15.60
2023-03-30T18:03:38.579Z,15.60
2023-03-30T18:06:06.715Z,15.50
2023-03-30T18:08:33.492Z,15.50
2023-03-30T18:11:01.478Z,15.40
2023-03-30T18:13:29.651Z,15.40
2023-03-30T18:15:59.399Z,15.40
2023-03-30T18:18:29.592Z,15.30
2023-03-30T18:21:04.534Z,15.30
2023-03-30T18:23:34.113Z,15.20
2023-03-30T18:26:09.339Z,15.20
2023-03-30T18:28:40.485Z,15.20
2023-03-30T18:31:08.857Z,15.10
2023-03-30T18:33:35.891Z,15.10
2023-03-30T18:36:05.854Z,15.10
2023-03-30T18:38:33.626Z,15.00
2023-03-30T18:41:01.259Z,15.00
2023-03-30T18:43:28.255Z,15.00
2023-03-30T18:46:00.832Z,15.00
2023-03-30T18:48:30.357Z,15.00
2023-03-30T18:50:57.860Z,14.90
2023-03-30T18:53:27.514Z,14.90
2023-03-30T18:55:58.413Z,14.90
2023-03-30T18:58:29.054Z,14.90
2023-03-30T19:00:56.697Z,14.80
2023-03-30T19:03:25.085Z,14.90
2023-03-30T19:05:52.057Z,14.90
2023-03-30T19:08:22.975Z,14.90
2023-03-30T19:10:56.859Z,14.90
2023-03-30T19:13:25.820Z,14.90
2023-03-30T19:15:53.086Z,15.00
2023-03-30T19:18:21.237Z,15.00
2023-03-30T19:20:50.005Z,15.00
2023-03-30T19:23:18.338Z,15.00
2023-03-30T19:25:47.338Z,15.00
2023-03-30T19:28:15.458Z,14.90
2023-03-30T19:30:42.978Z,14.90
2023-03-30T19:33:19.812Z,14.90
2023-03-30T19:35:47.246Z,14.90
2023-03-30T19:38:15.419Z,14.90
2023-03-30T19:40:43.027Z,14.80
2023-03-30T19:43:10.632Z,14.80
2023-03-30T19:45:39.091Z,14.80
2023-03-30T19:48:06.315Z,14.70
2023-03-30T19:50:33.155Z,14.70
2023-03-30T19:52:59.998Z,14.60
2023-03-30T19:55:27.368Z,14.50
2023-03-30T19:57:54.386Z,14.40
2023-03-30T20:00:21.380Z,14.40
2023-03-30T20:02:52.097Z,14.30
2023-03-30T20:05:21.488Z,14.30
2023-03-30T20:07:49.659Z,14.30
2023-03-30T20:10:26.681Z,14.30
2023-03-30T20:12:54.126Z,14.20
2023-03-30T20:15:23.840Z,14.20
2023-03-30T20:17:58.533Z,14.10
2023-03-30T20:20:26.132Z,14.00
2023-03-30T20:22:56.181Z,14.00
2023-03-30T20:25:24.108Z,14.00
2023-03-30T20:27:51.178Z,13.90
2023-03-30T20:30:18.801Z,13.90
2023-03-30T20:32:59.708Z,13.90
2023-03-30T20:35:31.878Z,13.80
2023-03-30T20:37:58.848Z,13.80
2023-03-30T20:40:27.258Z,13.80
2023-03-30T20:42:54.016Z,13.80
2023-03-30T20:45:25.993Z,13.80
2023-03-30T20:47:53.908Z,13.80
2023-03-30T20:50:21.044Z,13.80
2023-03-30T20:52:47.843Z,13.80
2023-03-30T20:55:14.640Z,13.80
2023-03-30T20:57:42.944Z,13.80
2023-03-30T21:00:10.648Z,13.80
2023-03-30T21:05:05.077Z,13.80
2023-03-30T21:10:00.635Z,13.80
2023-03-30T21:12:27.420Z,13.80
2023-03-30T21:14:54.161Z,13.80
2023-03-30T21:17:21.851Z,13.80
2023-03-30T21:19:48.625Z,13.80
2023-03-30T21:22:17.991Z,13.80
2023-03-30T21:24:44.717Z,13.80
2023-03-30T21:27:13.812Z,13.80
2023-03-30T21:29:40.591Z,13.80
2023-03-30T21:32:07.411Z,13.90
2023-03-30T21:34:34.136Z,13.80
2023-03-30T21:37:01.831Z,13.80
2023-03-30T21:39:29.778Z,13.80
2023-03-30T21:41:56.570Z,13.90
2023-03-30T21:44:23.412Z,13.90
2023-03-30T21:46:50.272Z,13.90
2023-03-30T21:49:17.145Z,13.90
2023-03-30T21:51:44.169Z,13.90
2023-03-30T21:54:11.296Z,13.90
2023-03-30T21:56:38.071Z,14.00
2023-03-30T21:59:04.938Z,14.00
2023-03-30T22:01:31.850Z,14.10
2023-03-30T22:03:58.743Z,14.00
2023-03-30T22:06:25.724Z,14.00
2023-03-30T22:08:52.506Z,14.10
2023-03-30T22:11:23.047Z,14.10
2023-03-30T22:13:50.692Z,14.10
2023-03-30T22:16:24.122Z,14.10
2023-03-30T22:18:51.978Z,14.10
2023-03-30T22:21:24.111Z,13.70
2023-03-30T22:23:52.806Z,14.20
2023-03-30T22:26:19.625Z,14.20
2023-03-30T22:28:46.561Z,14.20
2023-03-30T22:31:15.366Z,14.30
2023-03-30T22:33:42.905Z,14.30
2023-03-30T22:36:23.219Z,14.30
2023-03-30T22:38:51.503Z,14.30
2023-03-30T22:41:24.505Z,14.30
2023-03-30T22:43:56.620Z,14.30
2023-03-30T22:46:26.352Z,14.30
2023-03-30T22:48:55.410Z,14.30
2023-03-30T22:51:28.778Z,14.40
2023-03-30T22:53:59.722Z,14.40
2023-03-30T22:56:29.346Z,14.40
2023-03-30T22:58:56.451Z,14.30
2023-03-30T23:01:23.604Z,14.40
2023-03-30T23:03:50.650Z,14.40
2023-03-30T23:06:19.089Z,14.40
2023-03-30T23:08:48.220Z,14.40
2023-03-30T23:11:15.333Z,14.40
2023-03-30T23:13:42.225Z,14.40
2023-03-30T23:16:10.441Z,14.40
2023-03-30T23:18:37.658Z,14.40
2023-03-30T23:21:06.954Z,14.30
2023-03-30T23:23:35.842Z,14.40
2023-03-30T23:26:09.179Z,14.30
2023-03-30T23:28:42.275Z,14.40
2023-03-30T23:31:10.834Z,14.40
2023-03-30T23:33:37.843Z,14.40
2023-03-30T23:36:06.507Z,14.40
2023-03-30T23:38:33.444Z,14.40
2023-03-30T23:41:00.838Z,14.40
2023-03-30T23:43:27.680Z,14.40
2023-03-30T23:45:55.531Z,14.40
2023-03-30T23:48:22.424Z,14.40
2023-03-30T23:50:49.208Z,14.40
2023-03-30T23:53:16.187Z,14.40
2023-03-30T23:55:42.907Z,14.40
2023-03-30T23:58:09.693Z,14.50
